createdAt,value
2023-04-02T00:02:28.058Z,1.40
2023-04-02T00:05:16.206Z,1.52
2023-04-02T00:07:44.623Z,1.40
2023-04-02T00:10:25.958Z,1.55
2023-04-02T00:13:02.821Z,1.30
2023-04-02T00:15:30.200Z,1.50
2023-04-02T00:17:58.756Z,1.50
2023-04-02T00:20:26.076Z,1.73
2023-04-02T00:22:53.282Z,1.42
2023-04-02T00:25:20.476Z,1.50
2023-04-02T00:27:47.670Z,1.58
2023-04-02T00:30:15.525Z,1.48
2023-04-02T00:32:42.716Z,1.40
2023-04-02T00:35:12.626Z,1.52
2023-04-02T00:37:42.142Z,1.60
2023-04-02T00:40:10.824Z,1.55
2023-04-02T00:42:40.060Z,1.40
2023-04-02T00:45:09.348Z,1.30
2023-04-02T00:47:36.625Z,1.63
2023-04-02T00:50:05.750Z,1.65
2023-04-02T00:52:34.272Z,1.55
2023-04-02T00:55:02.507Z,1.52
2023-04-02T00:57:29.951Z,1.70
2023-04-02T00:59:58.207Z,1.50
2023-04-02T01:02:29.546Z,1.80
2023-04-02T01:04:57.485Z,1.55
2023-04-02T01:07:27.382Z,1.65
2023-04-02T01:10:02.506Z,1.60
2023-04-02T01:12:39.872Z,1.77
2023-04-02T01:15:09.637Z,1.77
2023-04-02T01:17:39.835Z,1.80
2023-04-02T01:22:35.897Z,1.58
2023-04-02T01:25:06.367Z,1.52
2023-04-02T01:27:33.816Z,2.08
2023-04-02T01:30:03.354Z,1.88
2023-04-02T01:32:30.672Z,2.20
2023-04-02T01:34:58.143Z,1.90
2023-04-02T01:37:29.370Z,2.20
2023-04-02T01:40:02.506Z,2.13
2023-04-02T01:42:30.974Z,2.10
2023-04-02T01:45:02.273Z,1.98
2023-04-02T01:47:29.679Z,2.13
2023-04-02T01:49:58.016Z,2.13
2023-04-02T01:52:26.983Z,1.90
2023-04-02T01:54:54.218Z,2.10
2023-04-02T01:57:21.537Z,2.33
2023-04-02T01:59:48.853Z,2.40
2023-04-02T02:02:17.635Z,2.35
2023-04-02T02:04:44.876Z,2.10
2023-04-02T02:07:14.207Z,2.45
2023-04-02T02:09:41.421Z,2.28
2023-04-02T02:12:10.394Z,2.25
2023-04-02T02:14:37.599Z,2.50
2023-04-02T02:17:04.838Z,2.47
2023-04-02T02:19:34.273Z,2.42
2023-04-02T02:22:05.273Z,2.08
2023-04-02T02:24:32.899Z,2.40
2023-04-02T02:27:04.493Z,2.33
2023-04-02T02:29:31.707Z,2.15
2023-04-02T02:31:59.009Z,2.67
2023-04-02T02:34:30.750Z,2.40
2023-04-02T02:36:59.772Z,2.08
2023-04-02T02:39:27.913Z,2.33
2023-04-02T02:41:55.773Z,2.30
2023-04-02T02:44:23.579Z,2.53
2023-04-02T02:46:51.013Z,2.67
2023-04-02T02:49:19.252Z,2.50
2023-04-02T02:51:48.989Z,2.47
2023-04-02T02:54:17.482Z,2.80
2023-04-02T02:56:46.345Z,2.35
2023-04-02T02:59:13.650Z,2.40
2023-04-02T03:01:41.529Z,2.72
2023-04-02T03:04:09.010Z,2.42
2023-04-02T03:06:37.105Z,2.67
2023-04-02T03:09:05.283Z,2.58
2023-04-02T03:11:35.905Z,2.47
2023-04-02T03:14:04.497Z,2.50
2023-04-02T03:16:32.184Z,2.38
2023-04-02T03:18:59.886Z,2.40
2023-04-02T03:21:28.392Z,2.08
2023-04-02T03:23:56.359Z,2.47
2023-04-02T03:26:23.963Z,2.45
2023-04-02T03:28:53.033Z,2.17
2023-04-02T03:31:21.203Z,2.47
2023-04-02T03:33:48.904Z,2.30
2023-04-02T03:36:18.627Z,2.13
2023-04-02T03:38:46.235Z,2.45
2023-04-02T03:41:15.925Z,2.22
2023-04-02T03:43:43.599Z,2.42
2023-04-02T03:46:14.444Z,2.20
2023-04-02T03:48:41.916Z,1.95
2023-04-02T03:51:11.350Z,2.22
2023-04-02T03:53:38.532Z,2.22
2023-04-02T03:56:06.490Z,2.05
2023-04-02T03:58:34.741Z,2.30
2023-04-02T04:01:03.591Z,2.22
2023-04-02T04:03:33.127Z,2.05
2023-04-02T04:06:00.779Z,2.50
2023-04-02T04:08:28.515Z,2.08
2023-04-02T04:10:57.242Z,2.40
2023-04-02T04:13:26.133Z,2.40
2023-04-02T04:15:54.027Z,2.30
2023-04-02T04:18:23.897Z,2.20
2023-04-02T04:20:56.487Z,2.38
2023-04-02T04:23:29.940Z,1.98
2023-04-02T04:26:01.840Z,2.00
2023-04-02T04:28:30.327Z,2.10
2023-04-02T04:30:59.923Z,2.30
2023-04-02T04:33:28.923Z,2.25
2023-04-02T04:35:58.260Z,1.92
2023-04-02T04:38:32.802Z,2.15
2023-04-02T04:41:01.821Z,1.90
2023-04-02T04:43:31.145Z,1.90
2023-04-02T04:45:59.733Z,1.70
2023-04-02T04:48:27.929Z,1.88
2023-04-02T04:50:55.312Z,2.00
2023-04-02T04:53:24.531Z,1.90
2023-04-02T04:55:52.840Z,1.90
2023-04-02T04:58:22.134Z,1.85
2023-04-02T05:00:52.028Z,1.57
2023-04-02T05:03:21.626Z,2.00
2023-04-02T05:05:48.835Z,1.70
2023-04-02T05:08:17.433Z,1.58
2023-04-02T05:10:47.042Z,1.60
2023-04-02T05:13:15.545Z,1.88
2023-04-02T05:15:43.999Z,1.80
2023-04-02T05:18:13.211Z,1.80
2023-04-02T05:20:42.193Z,1.70
2023-04-02T05:23:11.318Z,1.90
2023-04-02T05:25:38.542Z,1.60
2023-04-02T05:28:08.058Z,1.60
2023-04-02T05:30:46.700Z,1.55
2023-04-02T05:33:23.981Z,1.60
2023-04-02T05:35:52.471Z,1.80
2023-04-02T05:38:20.570Z,1.40
2023-04-02T05:40:47.762Z,1.67
2023-04-02T05:43:17.419Z,1.50
2023-04-02T05:45:45.251Z,1.52
2023-04-02T05:48:14.152Z,1.50
2023-04-02T05:50:43.012Z,1.60
2023-04-02T05:53:11.044Z,1.55
2023-04-02T05:55:39.918Z,1.40
2023-04-02T05:58:33.868Z,1.90
2023-04-02T06:00:59.714Z,1.63
2023-04-02T06:03:28.473Z,1.30
2023-04-02T06:05:56.884Z,1.60
2023-04-02T06:08:25.518Z,1.60
2023-04-02T06:10:54.564Z,1.60
2023-04-02T06:13:21.959Z,1.90
2023-04-02T06:15:49.142Z,1.63
2023-04-02T06:18:18.360Z,1.60
2023-04-02T06:20:45.543Z,1.70
2023-04-02T06:23:13.612Z,1.55
2023-04-02T06:25:41.357Z,1.50
2023-04-02T06:28:09.833Z,1.70
2023-04-02T06:30:37.902Z,1.35
2023-04-02T06:33:05.598Z,1.65
2023-04-02T06:35:34.522Z,1.80
2023-04-02T06:38:02.258Z,1.40
2023-04-02T06:40:33.164Z,1.33
2023-04-02T06:43:00.417Z,1.60
2023-04-02T06:45:29.268Z,1.23
2023-04-02T06:47:56.677Z,1.30
2023-04-02T06:50:24.473Z,1.67
2023-04-02T06:52:53.219Z,1.60
2023-04-02T06:55:26.485Z,1.60
2023-04-02T06:57:53.744Z,1.52
2023-04-02T07:00:23.310Z,1.30
2023-04-02T07:02:50.757Z,1.50
2023-04-02T07:05:18.086Z,1.42
2023-04-02T07:07:45.953Z,1.70
2023-04-02T07:10:15.353Z,1.38
2023-04-02T07:12:42.600Z,1.50
2023-04-02T07:15:11.106Z,1.35
2023-04-02T07:17:38.466Z,1.70
2023-04-02T07:20:06.030Z,1.30
2023-04-02T07:22:33.269Z,1.30
2023-04-02T07:25:00.605Z,1.35
2023-04-02T07:27:29.098Z,1.50
2023-04-02T07:29:56.298Z,1.35
2023-04-02T07:32:23.483Z,1.50
2023-04-02T07:34:50.674Z,1.42
2023-04-02T07:37:17.865Z,1.20
2023-04-02T07:39:45.072Z,1.35
2023-04-02T07:42:12.283Z,1.60
2023-04-02T07:44:40.979Z,1.30
2023-04-02T07:47:08.553Z,1.23
2023-04-02T07:49:35.754Z,1.20
2023-04-02T07:52:03.114Z,1.25
2023-04-02T07:54:30.352Z,1.35
2023-04-02T07:56:57.586Z,1.17
2023-04-02T07:59:24.831Z,1.40
2023-04-02T08:01:54.387Z,1.50
2023-04-02T08:04:22.085Z,0.93
2023-04-02T08:06:49.588Z,1.45
2023-04-02T08:09:16.850Z,1.40
2023-04-02T08:11:44.151Z,1.33
2023-04-02T08:14:11.334Z,1.20
2023-04-02T08:16:45.089Z,1.58
2023-04-02T08:19:13.602Z,1.40
2023-04-02T08:21:40.864Z,1.50
2023-04-02T08:24:08.198Z,1.52
2023-04-02T08:26:36.088Z,1.27
2023-04-02T08:29:03.579Z,1.40
2023-04-02T08:31:30.964Z,1.30
2023-04-02T08:33:58.753Z,1.27
2023-04-02T08:36:27.703Z,1.33
2023-04-02T08:38:54.953Z,1.30
2023-04-02T08:41:27.341Z,1.40
2023-04-02T08:43:59.023Z,1.38
2023-04-02T08:46:26.949Z,1.00
2023-04-02T08:48:56.760Z,1.30
2023-04-02T08:51:24.643Z,1.20
2023-04-02T08:53:53.220Z,1.58
2023-04-02T08:56:20.957Z,1.50
2023-04-02T08:58:48.697Z,1.20
2023-04-02T09:01:18.803Z,1.42
2023-04-02T09:06:16.430Z,1.10
2023-04-02T09:08:43.970Z,1.35
2023-04-02T09:11:13.757Z,1.30
2023-04-02T09:13:42.931Z,1.50
2023-04-02T09:16:10.771Z,1.50
2023-04-02T09:18:38.246Z,1.38
2023-04-02T09:21:17.249Z,1.45
2023-04-02T09:23:44.520Z,1.38
2023-04-02T09:26:17.893Z,1.33
2023-04-02T09:28:45.105Z,1.48
2023-04-02T09:31:13.293Z,1.50
2023-04-02T09:33:44.101Z,1.20
2023-04-02T09:36:18.356Z,1.33
2023-04-02T09:38:56.813Z,1.15
2023-04-02T09:41:25.316Z,1.30
2023-04-02T09:43:52.519Z,1.30
2023-04-02T09:46:22.421Z,1.30
2023-04-02T09:48:53.151Z,1.50
2023-04-02T09:51:21.514Z,1.50
2023-04-02T09:53:49.091Z,1.38
2023-04-02T09:56:17.091Z,1.70
2023-04-02T09:58:45.886Z,1.70
2023-04-02T10:01:34.365Z,2.25
2023-04-02T10:04:01.852Z,1.60
2023-04-02T10:06:29.183Z,1.77
2023-04-02T10:08:56.479Z,1.77
2023-04-02T10:11:30.828Z,1.70
2023-04-02T10:14:02.921Z,1.55
2023-04-02T10:16:33.027Z,1.73
2023-04-02T10:19:01.006Z,1.70
2023-04-02T10:21:29.389Z,1.98
2023-04-02T10:23:59.112Z,1.98
2023-04-02T10:26:31.022Z,1.70
2023-04-02T10:29:09.304Z,1.90
2023-04-02T10:31:38.778Z,1.52
2023-04-02T10:34:07.494Z,1.92
2023-04-02T10:36:39.746Z,1.90
2023-04-02T10:39:08.408Z,1.77
2023-04-02T10:41:36.375Z,1.85
2023-04-02T10:44:19.720Z,2.00
2023-04-02T10:46:49.739Z,1.63
2023-04-02T10:49:20.361Z,1.60
2023-04-02T10:51:50.299Z,1.80
2023-04-02T10:54:24.018Z,1.85
2023-04-02T10:56:53.013Z,1.95
2023-04-02T10:59:22.250Z,1.40
2023-04-02T11:01:49.485Z,1.47
2023-04-02T11:04:17.452Z,1.80
2023-04-02T11:06:44.850Z,1.88
2023-04-02T11:09:14.817Z,1.83
2023-04-02T11:11:42.497Z,1.70
2023-04-02T11:14:11.702Z,1.70
2023-04-02T11:16:43.535Z,1.30
2023-04-02T11:19:21.959Z,1.67
2023-04-02T11:21:58.788Z,1.50
2023-04-02T11:24:32.781Z,1.63
2023-04-02T11:27:04.938Z,1.45
2023-04-02T11:29:32.225Z,1.42
2023-04-02T11:32:21.575Z,1.50
2023-04-02T11:35:07.826Z,1.45
2023-04-02T11:37:36.176Z,1.40
2023-04-02T11:40:06.441Z,1.50
2023-04-02T11:42:33.721Z,1.70
2023-04-02T11:45:02.045Z,1.77
2023-04-02T11:47:30.877Z,1.30
2023-04-02T11:50:02.191Z,1.60
2023-04-02T11:52:33.811Z,1.60
2023-04-02T11:55:05.963Z,1.50
2023-04-02T11:57:54.314Z,1.50
2023-04-02T12:00:24.446Z,1.42
2023-04-02T12:05:21.639Z,1.42
2023-04-02T12:07:55.695Z,1.48
2023-04-02T12:10:23.191Z,1.42
2023-04-02T12:12:50.524Z,1.58
2023-04-02T12:15:31.287Z,1.40
2023-04-02T12:18:03.535Z,1.50
2023-04-02T12:20:32.291Z,1.48
2023-04-02T12:22:59.589Z,1.60
2023-04-02T12:25:29.102Z,1.42
2023-04-02T12:28:06.341Z,1.38
2023-04-02T12:30:33.806Z,1.55
2023-04-02T12:33:14.893Z,1.58
2023-04-02T12:35:43.601Z,1.40
2023-04-02T12:38:19.084Z,1.50
2023-04-02T12:40:52.020Z,1.50
2023-04-02T12:43:23.652Z,1.50
2023-04-02T12:45:51.994Z,1.30
2023-04-02T12:48:19.249Z,1.45
2023-04-02T12:50:47.763Z,1.40
2023-04-02T12:53:19.258Z,1.63
2023-04-02T12:55:47.185Z,1.30
2023-04-02T12:58:19.664Z,1.50
2023-04-02T13:00:46.851Z,1.23
2023-04-02T13:03:21.113Z,1.23
2023-04-02T13:05:53.403Z,1.40
2023-04-02T13:08:21.424Z,1.60
2023-04-02T13:10:52.523Z,1.50
2023-04-02T13:13:21.530Z,1.33
2023-04-02T13:16:00.524Z,1.53
2023-04-02T13:18:27.733Z,1.40
2023-04-02T13:20:57.240Z,1.50
2023-04-02T13:23:25.315Z,1.45
2023-04-02T13:25:52.545Z,1.60
2023-04-02T13:30:40.894Z,1.45
2023-04-02T13:33:08.409Z,1.15
2023-04-02T13:35:35.699Z,1.52
2023-04-02T13:38:05.675Z,1.50
2023-04-02T13:40:33.234Z,1.20
2023-04-02T13:43:00.805Z,1.40
2023-04-02T13:45:28.279Z,1.40
2023-04-02T13:47:57.229Z,1.27
2023-04-02T13:50:24.535Z,1.30
2023-04-02T13:52:51.934Z,1.40
2023-04-02T13:55:20.849Z,1.50
2023-04-02T13:57:49.929Z,1.40
2023-04-02T14:00:17.682Z,1.45
2023-04-02T14:02:46.189Z,1.60
2023-04-02T14:05:16.722Z,1.33
2023-04-02T14:07:46.570Z,1.20
2023-04-02T14:10:17.622Z,1.50
2023-04-02T14:12:49.551Z,1.40
2023-04-02T14:15:18.846Z,1.40
2023-04-02T14:17:49.723Z,1.40
2023-04-02T14:20:20.910Z,1.30
2023-04-02T14:22:51.957Z,1.38
2023-04-02T14:25:20.324Z,1.20
2023-04-02T14:27:49.520Z,1.30
2023-04-02T14:30:18.230Z,1.30
2023-04-02T14:32:47.279Z,1.40
2023-04-02T14:35:16.412Z,1.40
2023-04-02T14:37:46.473Z,1.23
2023-04-02T14:40:15.972Z,1.55
2023-04-02T14:42:44.400Z,1.30
2023-04-02T14:45:15.480Z,1.40
2023-04-02T14:47:44.061Z,1.42
2023-04-02T14:50:12.637Z,1.50
2023-04-02T14:52:40.189Z,1.30
2023-04-02T14:55:07.873Z,1.50
2023-04-02T14:57:36.332Z,1.60
2023-04-02T15:00:08.262Z,1.30
2023-04-02T15:02:39.145Z,1.30
2023-04-02T15:05:07.188Z,1.30
2023-04-02T15:07:35.046Z,1.35
2023-04-02T15:10:04.599Z,1.58
2023-04-02T15:12:33.373Z,1.40
2023-04-02T15:15:03.193Z,1.40
2023-04-02T15:17:30.963Z,1.30
2023-04-02T15:20:03.363Z,1.50
2023-04-02T15:22:32.742Z,1.30
2023-04-02T15:25:03.897Z,1.33
2023-04-02T15:27:46.091Z,1.50
2023-04-02T15:30:14.676Z,1.10
2023-04-02T15:32:42.108Z,1.30
2023-04-02T15:35:18.676Z,1.30
2023-04-02T15:37:46.666Z,1.20
2023-04-02T15:40:19.168Z,1.15
2023-04-02T15:42:48.145Z,1.25
2023-04-02T15:45:20.038Z,1.23
2023-04-02T15:47:50.460Z,1.30
2023-04-02T15:50:22.832Z,1.30
2023-04-02T15:52:51.052Z,1.50
2023-04-02T15:55:20.834Z,1.30
2023-04-02T15:58:06.687Z,1.10
2023-04-02T16:00:34.167Z,1.20
2023-04-02T16:03:06.804Z,1.10
2023-04-02T16:05:37.412Z,1.20
2023-04-02T16:08:12.698Z,1.40
2023-04-02T16:10:42.519Z,1.30
2023-04-02T16:13:14.274Z,1.38
2023-04-02T16:15:42.678Z,1.15
2023-04-02T16:18:11.859Z,1.10
2023-04-02T16:20:40.729Z,0.83
2023-04-02T16:23:11.089Z,1.10
2023-04-02T16:25:39.832Z,1.60
2023-04-02T16:28:09.325Z,1.15
2023-04-02T16:30:41.387Z,1.42
2023-04-02T16:33:11.171Z,1.10
2023-04-02T16:35:43.452Z,1.00
2023-04-02T16:38:14.125Z,1.10
2023-04-02T16:40:42.190Z,0.95
2023-04-02T16:43:14.011Z,1.15
2023-04-02T16:45:42.621Z,1.20
2023-04-02T16:48:11.896Z,1.00
2023-04-02T16:50:43.209Z,1.00
2023-04-02T16:53:19.938Z,1.10
2023-04-02T16:55:49.965Z,1.23
2023-04-02T16:58:29.384Z,1.30
2023-04-02T17:00:57.053Z,1.38
2023-04-02T17:03:40.856Z,1.02
2023-04-02T17:06:10.540Z,0.95
2023-04-02T17:08:38.779Z,1.17
2023-04-02T17:11:06.420Z,1.20
2023-04-02T17:13:34.904Z,1.20
2023-04-02T17:16:07.414Z,0.95
2023-04-02T17:18:34.744Z,0.90
2023-04-02T17:21:03.152Z,1.10
2023-04-02T17:23:31.737Z,1.30
2023-04-02T17:25:59.799Z,1.13
2023-04-02T17:28:29.363Z,1.35
2023-04-02T17:30:57.077Z,0.98
2023-04-02T17:33:26.719Z,1.30
2023-04-02T17:35:57.235Z,1.05
2023-04-02T17:38:25.695Z,1.10
2023-04-02T17:40:54.946Z,0.85
2023-04-02T17:43:27.632Z,1.10
2023-04-02T17:45:56.401Z,1.23
2023-04-02T17:48:25.886Z,1.00
2023-04-02T17:50:59.718Z,1.00
2023-04-02T17:53:30.030Z,1.48
2023-04-02T17:56:02.209Z,1.10
2023-04-02T17:58:45.244Z,1.05
2023-04-02T18:01:13.008Z,0.90
2023-04-02T18:03:51.113Z,0.85
2023-04-02T18:06:20.080Z,1.10
2023-04-02T18:08:49.953Z,1.10
2023-04-02T18:11:21.620Z,1.00
2023-04-02T18:13:49.591Z,1.02
2023-04-02T18:16:19.304Z,1.17
2023-04-02T18:18:51.839Z,1.00
2023-04-02T18:21:20.943Z,1.13
2023-04-02T18:23:53.517Z,1.00
2023-04-02T18:26:23.514Z,1.05
2023-04-02T18:28:53.010Z,1.20
2023-04-02T18:31:22.504Z,1.10
2023-04-02T18:34:08.422Z,1.20
2023-04-02T18:36:37.943Z,1.25
2023-04-02T18:39:06.661Z,0.88
2023-04-02T18:41:41.207Z,1.23
2023-04-02T18:44:12.743Z,1.30
2023-04-02T18:46:40.593Z,1.42
2023-04-02T18:49:12.526Z,1.27
2023-04-02T18:51:39.753Z,1.40
2023-04-02T18:54:11.436Z,1.33
2023-04-02T18:56:39.953Z,1.20
2023-04-02T18:59:09.830Z,1.10
2023-04-02T19:01:37.550Z,1.20
2023-04-02T19:04:05.836Z,1.10
2023-04-02T19:06:36.070Z,1.30
2023-04-02T19:11:31.185Z,1.35
2023-04-02T19:14:00.494Z,1.40
2023-04-02T19:16:33.968Z,1.00
2023-04-02T19:19:02.953Z,1.30
2023-04-02T19:21:33.786Z,1.23
2023-04-02T19:24:03.765Z,1.30
2023-04-02T19:26:31.510Z,1.20
2023-04-02T19:29:02.338Z,1.35
2023-04-02T19:31:35.569Z,1.60
2023-04-02T19:34:03.813Z,1.40
2023-04-02T19:36:49.041Z,1.30
2023-04-02T19:39:38.673Z,1.30
2023-04-02T19:42:08.521Z,1.70
2023-04-02T19:44:37.024Z,1.45
2023-04-02T19:47:04.275Z,1.35
2023-04-02T19:49:31.617Z,1.45
2023-04-02T19:51:58.798Z,1.30
2023-04-02T19:54:26.008Z,1.27
2023-04-02T19:56:53.239Z,1.40
2023-04-02T19:59:20.430Z,1.30
2023-04-02T20:01:48.951Z,1.35
2023-04-02T20:04:16.182Z,1.42
2023-04-02T20:06:43.395Z,1.17
2023-04-02T20:09:10.604Z,1.35
2023-04-02T20:11:37.907Z,1.15
2023-04-02T20:14:05.265Z,1.30
2023-04-02T20:16:32.745Z,1.23
2023-04-02T20:19:01.422Z,1.38
2023-04-02T20:21:34.485Z,1.23
2023-04-02T20:24:01.833Z,1.30
2023-04-02T20:26:29.914Z,1.38
2023-04-02T20:28:57.127Z,1.60
2023-04-02T20:31:24.362Z,1.50
2023-04-02T20:33:54.922Z,1.40
2023-04-02T20:36:24.625Z,1.50
2023-04-02T20:38:52.378Z,1.25
2023-04-02T20:41:19.757Z,1.48
2023-04-02T20:43:46.936Z,1.27
2023-04-02T20:46:14.209Z,1.60
2023-04-02T20:48:41.511Z,1.35
2023-04-02T20:51:09.314Z,1.40
2023-04-02T20:53:38.131Z,1.33
2023-04-02T20:56:06.478Z,1.50
2023-04-02T20:58:33.796Z,1.60
2023-04-02T21:01:11.142Z,1.50
2023-04-02T21:03:39.697Z,1.27
2023-04-02T21:06:07.219Z,1.70
2023-04-02T21:08:34.506Z,1.08
2023-04-02T21:11:03.630Z,1.58
2023-04-02T21:13:31.250Z,1.20
2023-04-02T21:15:58.540Z,1.50
2023-04-02T21:18:25.923Z,1.17
2023-04-02T21:20:56.877Z,1.30
2023-04-02T21:23:24.090Z,1.48
2023-04-02T21:25:56.304Z,1.40
2023-04-02T21:28:25.190Z,1.50
2023-04-02T21:30:52.443Z,1.25
2023-04-02T21:33:19.627Z,1.30
2023-04-02T21:35:47.158Z,1.20
2023-04-02T21:38:14.345Z,1.40
2023-04-02T21:40:41.563Z,1.45
2023-04-02T21:43:08.740Z,1.55
2023-04-02T21:45:37.492Z,1.20
2023-04-02T21:48:05.041Z,1.50
2023-04-02T21:50:32.289Z,1.40
2023-04-02T21:52:59.486Z,1.48
2023-04-02T21:55:26.663Z,1.40
2023-04-02T21:57:53.869Z,1.33
2023-04-02T22:00:21.210Z,1.25
2023-04-02T22:02:49.844Z,1.30
2023-04-02T22:05:17.152Z,1.30
2023-04-02T22:07:44.329Z,1.30
2023-04-02T22:10:11.530Z,1.38
2023-04-02T22:12:38.923Z,1.30
2023-04-02T22:15:06.993Z,1.50
2023-04-02T22:17:34.222Z,1.30
2023-04-02T22:20:03.018Z,1.40
2023-04-02T22:22:30.588Z,1.83
2023-04-02T22:24:58.378Z,1.30
2023-04-02T22:27:25.565Z,1.33
2023-04-02T22:29:52.748Z,1.20
2023-04-02T22:32:20.277Z,1.30
2023-04-02T22:34:47.489Z,1.30
2023-04-02T22:37:16.032Z,1.10
2023-04-02T22:39:43.225Z,1.60
2023-04-02T22:42:10.535Z,1.23
2023-04-02T22:44:37.777Z,1.52
2023-04-02T22:47:05.084Z,1.10
2023-04-02T22:49:32.254Z,1.30
2023-04-02T22:51:59.458Z,1.25
2023-04-02T22:54:27.947Z,1.40
2023-04-02T22:56:55.225Z,1.30
2023-04-02T22:59:22.497Z,1.20
2023-04-02T23:01:49.692Z,1.30
2023-04-02T23:04:16.919Z,1.20
2023-04-02T23:06:44.130Z,1.50
2023-04-02T23:09:11.342Z,1.50
2023-04-02T23:11:39.875Z,1.45
2023-04-02T23:14:07.080Z,1.40
2023-04-02T23:16:34.361Z,1.50
2023-04-02T23:19:01.737Z,1.20
2023-04-02T23:21:29.020Z,1.17
2023-04-02T23:23:56.292Z,1.67
2023-04-02T23:26:24.258Z,1.25
2023-04-02T23:28:52.781Z,1.30
2023-04-02T23:31:20.758Z,1.52
2023-04-02T23:33:48.002Z,1.30
2023-04-02T23:36:15.801Z,1.20
2023-04-02T23:38:43.032Z,1.17
2023-04-02T23:41:12.839Z,1.35
2023-04-02T23:43:40.414Z,1.27
2023-04-02T23:46:08.944Z,1.20
2023-04-02T23:48:36.153Z,1.50
2023-04-02T23:51:03.355Z,1.30
2023-04-02T23:53:30.696Z,1.40
2023-04-02T23:55:57.890Z,1.45
2023-04-02T23:58:25.256Z,1.35
